• Join FlightAware (Why Join?)
  • Login
  • US Flag 
08:57PM EDT


 

Airport Tracker/Info


-or-


 

Live Flight TrackerFlight Track Log ✈ AIP5038 ✈ 13-Sep-2013 ✈ KMSO - KBIL

Flight Track Log - Related Links

Times and Time Zones

All times are in EDT time to prevent confusion due to time zone crossing. See the AIP5038 flight status page for this flight to view local times or setup timezone preferences in your user account.

Time Position Orientation Groundspeed Altitude Reporting Facility
EDT Latitude Longitude Course Direction KTS MPH feet Rate Location/Type
03:39AM 46.9228 -114.1106 105° East 124 143 4,300  Level Salt Lake Center
03:40AM 46.9044 -114.1003 159° South 121 139 6,100 1,680 Climbing Salt Lake Center
03:41AM 46.8961 -114.0528 104° East 123 142 7,800 1,620 Climbing Salt Lake Center
03:42AM 46.8864 -114.0050 107° East 124 143 9,400 1,440 Climbing Salt Lake Center
03:43AM 46.8246 -113.5649 101° East  Level Estimated
03:43AM 46.8775 -113.9539 104° East 129 148 10,800  Level Salt Lake Center
03:44AM 46.8083 -113.4777 105° East  Level FlightAware Approximate
03:44AM 46.8664 -113.9014 107° East 135 155 12,200  Level Salt Lake Center
03:45AM 46.8581 -113.8497 103° East 132 152 13,500 1,260 Climbing Salt Lake Center
03:46AM 46.8481 -113.7939 105° East 132 152 14,800 660 Climbing Salt Lake Center
03:47AM 46.8356 -113.7336 107° East 154 177 14,900 120 Climbing Salt Lake Center
03:48AM 46.8200 -113.6592 107° East 188 216 15,100  Climbing Salt Lake Center
03:49AM 46.8106 -113.5797 100° East 199 229 15,000 -120 Descending Salt Lake Center
03:50AM 46.7972 -113.5031 104° East 197 227 14,900 -60 Descending Salt Lake Center
03:51AM 46.7839 -113.4228 104° East 202 232 14,900  Level Salt Lake Center
03:52AM 46.7700 -113.3469 105° East 196 226 14,900  Level Salt Lake Center
03:53AM 46.7572 -113.2750 105° East 196 226 14,900  Level Salt Lake Center
03:54AM 46.7419 -113.1997 106° East 194 223 15,000  Climbing Salt Lake Center
03:55AM 46.7267 -113.1206 106° East 204 235 14,900 -60 Descending Salt Lake Center
03:56AM 46.7144 -113.0436 103° East 197 227 14,900  Level Salt Lake Center
03:57AM 46.6997 -112.9658 105° East 198 228 14,900  Level Salt Lake Center
03:58AM 46.6847 -112.8850 105° East 194 223 15,000 60 Climbing Salt Lake Center
03:59AM 46.6703 -112.8086 105° East 195 224 15,100  Climbing Salt Lake Center
04:00AM 46.6561 -112.7311 105° East 196 226 15,100 -60 Level Salt Lake Center
04:01AM 46.6417 -112.6536 105° East 197 227 15,000 -60 Descending Salt Lake Center
04:02AM 46.6272 -112.5764 105° East 198 228 15,000  Level Salt Lake Center
04:03AM 46.6136 -112.4997 104° East 197 227 15,000  Level Salt Lake Center
04:04AM 46.5989 -112.4233 106° East 198 228 15,000  Level Salt Lake Center
04:05AM 46.5850 -112.3450 104° East 200 230 15,000  Level Salt Lake Center
04:06AM 46.5692 -112.2667 106° East 202 232 15,000  Level Salt Lake Center
04:07AM 46.5525 -112.1892 107° East 202 232 15,000  Level Salt Lake Center
04:08AM 46.5367 -112.1103 106° East 204 235 15,100  Climbing Salt Lake Center
04:09AM 46.5211 -112.0328 106° East 202 232 15,000 -60 Descending Salt Lake Center
04:10AM 46.5061 -111.9519 105° East 208 239 15,000  Level Salt Lake Center
04:11AM 46.4922 -111.8719 104° East 205 236 15,000  Level Salt Lake Center
04:12AM 46.4797 -111.7914 103° East 207 238 15,000  Level Salt Lake Center
04:13AM 46.4656 -111.7117 104° East 206 237 15,000  Level Salt Lake Center
04:14AM 46.4483 -111.6353 108° East 202 232 15,100  Climbing Salt Lake Center
04:15AM 46.4308 -111.5467 106° East 204 235 15,100  Level Salt Lake Center
04:16AM 46.4144 -111.4653 106° East 206 237 15,100 -60 Level Salt Lake Center
04:17AM 46.3992 -111.3811 105° East 211 243 15,000  Descending Salt Lake Center
04:18AM 46.3808 -111.2994 108° East 210 242 15,100 60 Climbing Salt Lake Center
04:19AM 46.3675 -111.2147 103° East 212 244 15,200 -60 Climbing Salt Lake Center
04:20AM 46.3508 -111.1392 108° East 210 242 15,000 -60 Descending Salt Lake Center
04:21AM 46.3336 -111.0553 107° East 213 245 15,100  Climbing Salt Lake Center
04:22AM 46.3156 -110.9728 108° East 212 244 15,100  Level Salt Lake Center
04:23AM 46.2989 -110.8969 108° East 210 242 15,100 -60 Level Salt Lake Center
04:24AM 46.2792 -110.8169 110° East 212 244 15,000 -60 Descending Salt Lake Center
04:25AM 46.2639 -110.7331 105° East 215 247 15,000  Level Salt Lake Center
04:27AM 46.2428 -110.6369 108° East 211 243 15,000  Level Salt Lake Center
04:28AM 46.2242 -110.5400 105° East 208 239 15,100  Climbing Salt Lake Center
04:29AM 46.2097 -110.4603 105° East 207 238 15,000 -60 Descending Salt Lake Center
04:30AM 46.1997 -110.3728 99° East 212 244 15,000  Level Salt Lake Center
04:31AM 46.1803 -110.2936 110° East 214 246 15,000  Level Salt Lake Center
04:32AM 46.1578 -110.2200 114° Southeast 210 242 15,000  Level Salt Lake Center
04:33AM 46.1389 -110.1408 109° East 209 241 15,000  Level Salt Lake Center
04:34AM 46.1239 -110.0617 105° East 208 239 15,000  Level Salt Lake Center
04:35AM 46.1072 -109.9819 107° East 206 237 15,000  Level Salt Lake Center
04:36AM 46.0911 -109.9019 106° East 208 239 15,000  Level Salt Lake Center
04:37AM 46.0731 -109.8114 106° East 208 239 15,000  Level Salt Lake Center
04:38AM 46.0581 -109.7325 105° East 208 239 15,000 -240 Level Salt Lake Center
04:39AM 46.0447 -109.6508 103° East 213 245 14,600 -420 Descending Salt Lake Center
04:40AM 46.0308 -109.5569 102° East 222 255 14,200 -420 Descending Salt Lake Center
04:41AM 46.0172 -109.4697 103° East 225 259 13,800 -600 Descending Salt Lake Center
04:42AM 46.0056 -109.3808 101° East 229 264 13,000 -780 Descending Salt Lake Center
04:43AM 45.9908 -109.2908 103° East 233 268 12,300 -840 Descending Salt Lake Center
04:44AM 45.9769 -109.1992 102° East 236 272 11,400 -900 Descending Salt Lake Center
04:45AM 45.9631 -109.1094 103° East 234 269 10,600 -900 Descending Salt Lake Center
04:46AM 45.9436 -109.0228 108° East 232 267 9,700 -900 Descending Salt Lake Center
04:47AM 45.9183 -108.9328 112° Southeast 228 262 8,800 -900 Descending Salt Lake Center
04:48AM 45.8950 -108.8489 112° Southeast 228 262 7,900 -1,080 Descending Salt Lake Center
04:49AM 45.8722 -108.7669 112° Southeast 226 260 6,700 -1,080 Descending Salt Lake Center
04:50AM 45.8544 -108.7031 112° Southeast 184 212 5,800 -900 Descending Salt Lake Center
04:51AM 45.8392 -108.6489 112° Southeast 157 181 5,000 -720 Descending Salt Lake Center
04:52AM 45.8261 -108.6025 112° Southeast 134 154 4,400 -600 Descending Salt Lake Center
04:53AM 45.8136 -108.5586 112° Southeast 116 133 3,800 -600 Descending Salt Lake Center
04:55AM 45.8077 -108.5429 90° East  Level Estimated